sensor_id;sensor_type;location;lat;lon;timestamp;P1;durP1;ratioP1;P2;durP2;ratioP2
12373;SDS011;6251;51.762;8.660;2024-01-30T00:08:40;21.07;;;16.00;;
12373;SDS011;6251;51.762;8.660;2024-01-30T02:00:58;19.00;;;14.03;;
12373;SDS011;6251;51.762;8.660;2024-01-30T02:10:59;18.10;;;14.03;;
12373;SDS011;6251;51.762;8.660;2024-01-30T03:52:33;17.77;;;14.40;;
12373;SDS011;6251;51.762;8.660;2024-01-30T05:03:36;18.80;;;13.17;;
12373;SDS011;6251;51.762;8.660;2024-01-30T05:13:37;17.83;;;13.47;;
12373;SDS011;6251;51.762;8.660;2024-01-30T05:23:37;16.30;;;12.93;;
12373;SDS011;6251;51.762;8.660;2024-01-30T05:33:38;16.00;;;12.40;;
12373;SDS011;6251;51.762;8.660;2024-01-30T05:43:40;18.43;;;13.83;;
12373;SDS011;6251;51.762;8.660;2024-01-30T05:53:43;20.37;;;14.90;;
12373;SDS011;6251;51.762;8.660;2024-01-30T06:03:44;16.90;;;13.03;;
12373;SDS011;6251;51.762;8.660;2024-01-30T06:13:45;17.53;;;13.80;;
12373;SDS011;6251;51.762;8.660;2024-01-30T06:23:45;16.60;;;13.13;;
12373;SDS011;6251;51.762;8.660;2024-01-30T06:33:46;20.10;;;12.67;;
12373;SDS011;6251;51.762;8.660;2024-01-30T06:43:47;20.63;;;13.93;;
12373;SDS011;6251;51.762;8.660;2024-01-30T06:53:48;17.10;;;13.23;;
12373;SDS011;6251;51.762;8.660;2024-01-30T07:03:48;17.70;;;13.27;;
12373;SDS011;6251;51.762;8.660;2024-01-30T07:13:52;18.57;;;13.70;;
12373;SDS011;6251;51.762;8.660;2024-01-30T07:23:54;17.83;;;12.77;;
12373;SDS011;6251;51.762;8.660;2024-01-30T07:33:55;18.90;;;12.57;;
12373;SDS011;6251;51.762;8.660;2024-01-30T07:43:56;14.30;;;11.37;;
12373;SDS011;6251;51.762;8.660;2024-01-30T07:53:56;17.80;;;12.30;;
12373;SDS011;6251;51.762;8.660;2024-01-30T08:03:57;15.50;;;11.63;;
12373;SDS011;6251;51.762;8.660;2024-01-30T08:13:57;18.27;;;12.90;;
12373;SDS011;6251;51.762;8.660;2024-01-30T08:23:58;17.33;;;12.80;;
12373;SDS011;6251;51.762;8.660;2024-01-30T08:33:58;18.67;;;14.00;;
12373;SDS011;6251;51.762;8.660;2024-01-30T08:43:59;18.03;;;13.60;;
12373;SDS011;6251;51.762;8.660;2024-01-30T08:53:59;22.00;;;15.35;;
12373;SDS011;6251;51.762;8.660;2024-01-30T09:04:00;28.15;;;17.33;;
12373;SDS011;6251;51.762;8.660;2024-01-30T09:14:00;27.50;;;17.75;;
12373;SDS011;6251;51.762;8.660;2024-01-30T09:24:02;26.50;;;17.35;;
12373;SDS011;6251;51.762;8.660;2024-01-30T09:34:06;19.08;;;14.45;;
12373;SDS011;6251;51.762;8.660;2024-01-30T09:44:06;17.60;;;13.38;;
12373;SDS011;6251;51.762;8.660;2024-01-30T09:54:08;17.15;;;12.27;;
12373;SDS011;6251;51.762;8.660;2024-01-30T10:04:10;14.50;;;11.90;;
12373;SDS011;6251;51.762;8.660;2024-01-30T10:14:11;15.43;;;11.85;;
12373;SDS011;6251;51.762;8.660;2024-01-30T10:24:11;16.60;;;12.93;;
12373;SDS011;6251;51.762;8.660;2024-01-30T10:34:15;21.37;;;14.35;;
12373;SDS011;6251;51.762;8.660;2024-01-30T10:44:17;17.00;;;12.43;;
12373;SDS011;6251;51.762;8.660;2024-01-30T10:54:22;17.25;;;12.60;;
12373;SDS011;6251;51.762;8.660;2024-01-30T11:04:25;17.77;;;14.02;;
12373;SDS011;6251;51.762;8.660;2024-01-30T11:14:26;13.80;;;12.32;;
12373;SDS011;6251;51.762;8.660;2024-01-30T11:24:27;15.95;;;12.57;;
12373;SDS011;6251;51.762;8.660;2024-01-30T11:34:28;15.10;;;11.98;;
12373;SDS011;6251;51.762;8.660;2024-01-30T11:44:28;12.63;;;11.20;;
12373;SDS011;6251;51.762;8.660;2024-01-30T11:54:29;16.35;;;13.45;;
12373;SDS011;6251;51.762;8.660;2024-01-30T12:04:29;15.13;;;13.23;;
12373;SDS011;6251;51.762;8.660;2024-01-30T12:14:30;24.42;;;16.33;;
12373;SDS011;6251;51.762;8.660;2024-01-30T12:24:31;20.88;;;15.50;;
12373;SDS011;6251;51.762;8.660;2024-01-30T12:34:32;14.68;;;10.32;;
12373;SDS011;6251;51.762;8.660;2024-01-30T12:44:33;11.68;;;9.27;;
12373;SDS011;6251;51.762;8.660;2024-01-30T12:54:34;9.20;;;8.20;;
12373;SDS011;6251;51.762;8.660;2024-01-30T13:04:35;9.25;;;7.65;;
12373;SDS011;6251;51.762;8.660;2024-01-30T13:14:35;10.25;;;8.35;;
12373;SDS011;6251;51.762;8.660;2024-01-30T13:24:36;9.80;;;7.75;;
12373;SDS011;6251;51.762;8.660;2024-01-30T13:34:36;14.07;;;8.93;;
12373;SDS011;6251;51.762;8.660;2024-01-30T13:44:37;10.63;;;8.02;;
12373;SDS011;6251;51.762;8.660;2024-01-30T13:54:38;11.15;;;7.75;;
12373;SDS011;6251;51.762;8.660;2024-01-30T14:04:38;8.52;;;7.70;;
12373;SDS011;6251;51.762;8.660;2024-01-30T14:14:40;10.65;;;7.32;;
12373;SDS011;6251;51.762;8.660;2024-01-30T14:24:41;12.32;;;9.05;;
12373;SDS011;6251;51.762;8.660;2024-01-30T14:34:42;12.60;;;10.27;;
12373;SDS011;6251;51.762;8.660;2024-01-30T14:44:42;15.75;;;9.52;;
12373;SDS011;6251;51.762;8.660;2024-01-30T14:54:43;14.02;;;9.75;;
12373;SDS011;6251;51.762;8.660;2024-01-30T15:04:43;12.98;;;8.82;;
12373;SDS011;6251;51.762;8.660;2024-01-30T15:14:44;13.05;;;8.88;;
12373;SDS011;6251;51.762;8.660;2024-01-30T15:24:50;9.93;;;8.40;;
12373;SDS011;6251;51.762;8.660;2024-01-30T15:34:51;11.00;;;8.20;;
12373;SDS011;6251;51.762;8.660;2024-01-30T15:44:51;14.20;;;8.68;;
12373;SDS011;6251;51.762;8.660;2024-01-30T15:54:52;12.75;;;9.20;;
12373;SDS011;6251;51.762;8.660;2024-01-30T16:04:52;12.95;;;8.77;;
12373;SDS011;6251;51.762;8.660;2024-01-30T16:14:53;14.85;;;9.60;;
12373;SDS011;6251;51.762;8.660;2024-01-30T16:24:53;11.93;;;10.18;;
12373;SDS011;6251;51.762;8.660;2024-01-30T16:34:54;13.75;;;11.32;;
12373;SDS011;6251;51.762;8.660;2024-01-30T16:44:55;11.50;;;9.60;;
12373;SDS011;6251;51.762;8.660;2024-01-30T16:54:56;12.00;;;10.77;;
12373;SDS011;6251;51.762;8.660;2024-01-30T17:04:56;13.98;;;11.52;;
12373;SDS011;6251;51.762;8.660;2024-01-30T17:14:59;15.80;;;12.77;;
12373;SDS011;6251;51.762;8.660;2024-01-30T17:25:00;19.12;;;14.32;;
12373;SDS011;6251;51.762;8.660;2024-01-30T17:35:00;15.63;;;13.90;;
12373;SDS011;6251;51.762;8.660;2024-01-30T17:45:01;22.80;;;15.35;;
12373;SDS011;6251;51.762;8.660;2024-01-30T17:55:03;19.75;;;13.35;;
12373;SDS011;6251;51.762;8.660;2024-01-30T18:05:04;7.15;;;6.25;;
12373;SDS011;6251;51.762;8.660;2024-01-30T18:15:05;4.72;;;4.30;;
12373;SDS011;6251;51.762;8.660;2024-01-30T18:25:06;2.97;;;2.72;;
12373;SDS011;6251;51.762;8.660;2024-01-30T18:35:07;3.30;;;2.35;;
12373;SDS011;6251;51.762;8.660;2024-01-30T18:45:08;2.72;;;2.50;;
12373;SDS011;6251;51.762;8.660;2024-01-30T18:55:09;3.65;;;3.35;;
12373;SDS011;6251;51.762;8.660;2024-01-30T19:05:10;2.58;;;2.37;;
12373;SDS011;6251;51.762;8.660;2024-01-30T19:15:11;4.68;;;2.90;;
12373;SDS011;6251;51.762;8.660;2024-01-30T19:25:11;4.15;;;3.12;;
12373;SDS011;6251;51.762;8.660;2024-01-30T19:35:12;4.37;;;3.15;;
12373;SDS011;6251;51.762;8.660;2024-01-30T19:45:12;3.90;;;3.50;;
12373;SDS011;6251;51.762;8.660;2024-01-30T19:55:13;5.32;;;3.75;;
12373;SDS011;6251;51.762;8.660;2024-01-30T20:05:14;8.75;;;5.72;;
12373;SDS011;6251;51.762;8.660;2024-01-30T20:15:17;9.45;;;7.57;;
12373;SDS011;6251;51.762;8.660;2024-01-30T20:25:18;10.45;;;9.00;;
12373;SDS011;6251;51.762;8.660;2024-01-30T20:35:18;12.70;;;9.20;;
12373;SDS011;6251;51.762;8.660;2024-01-30T20:45:19;13.60;;;9.88;;
12373;SDS011;6251;51.762;8.660;2024-01-30T20:55:19;15.63;;;12.02;;
12373;SDS011;6251;51.762;8.660;2024-01-30T21:05:22;18.27;;;13.77;;
12373;SDS011;6251;51.762;8.660;2024-01-30T21:15:23;19.20;;;12.90;;
12373;SDS011;6251;51.762;8.660;2024-01-30T21:25:24;16.10;;;11.75;;
12373;SDS011;6251;51.762;8.660;2024-01-30T21:35:25;14.38;;;10.70;;
12373;SDS011;6251;51.762;8.660;2024-01-30T21:45:25;12.73;;;9.57;;
12373;SDS011;6251;51.762;8.660;2024-01-30T21:55:26;10.85;;;8.13;;
